Columbia — WYR2092 — position and weather

sailwx.info

Track history (hours):
 
Tides and Currents Weather Stations Pressure Air Temp Water Temp Dewpoint Dewpoint Depression Visibility Wind Speed Wind Dir Waves Ship Positions

Columbia

Owner: ALASKA, STATE OF, ANCHORAGE, AK. More information available from US FCC via Universal Licensing System and Coast Guard Vessel Documentation Center.

Last reported at 2018-Sep-30 11:05 UTC. Time now 2018-Nov-18 16:51 UTC.
Position N 54°41' W 130°49'.
Warning: this ship's position is 49 days out of date.

Type: Ship. MMSI: 367144000.

Date/timePositionNaut miles runAvg speedWind from/ knotsBaromVisibWave heightAir tempDewpointWater temp
2018-Sep-30 11:05N 54°41' W 130°49'016.8
2018-Sep-30 11:03N 54°40' W 130°48'115.8
2018-Sep-30 11:00N 54°40' W 130°47'715.3
2018-Sep-30 10:30N 54°33' W 130°43'715.6
2018-Sep-30 10:03N 54°26' W 130°39'115.8
2018-Sep-30 10:00N 54°25' W 130°38'612.9
2018-Sep-30 09:31N 54°19' W 130°35'715.2
2018-Sep-30 09:03N 54°13' W 130°29'115.0
2018-Sep-30 09:00N 54°13' W 130°28'815.4
2018-Sep-30 08:30N 54°06' W 130°21'715.0
2018-Sep-30 08:03N 54°01' W 130°13'115.1
2018-Sep-30 08:00N 54°00' W 130°13'713.8
2018-Sep-30 07:30N 53°54' W 130°08'614.3
2018-Sep-30 07:03N 53°50' W 130°00'114.4
2018-Sep-30 07:00N 53°49' W 129°60'814.4
2018-Sep-30 06:29N 53°44' W 129°51'7613.6
2018-Sep-30 00:53N 52°44' W 128°33'614.5
2018-Sep-30 00:30N 52°38' W 128°31'815.6
2018-Sep-30 00:00N 52°31' W 128°27'917.6
2018-Sep-29 23:30N 52°22' W 128°32'714.6
2018-Sep-29 23:03N 52°17' W 128°27'114.9
2018-Sep-29 23:00N 52°16' W 128°26'815.8
2018-Sep-29 22:30N 52°14' W 128°14'511.5
2018-Sep-29 22:03N 52°11' W 128°07'0 7.6
2018-Sep-29 22:00N 52°10' W 128°08'4 8.4
2018-Sep-29 21:30N 52°06' W 128°08'714.5
2018-Sep-29 21:03N 52°04' W 127°58'116.0
2018-Sep-29 21:00N 52°04' W 127°56'815.2
2018-Sep-29 20:30N 51°56' W 127°56'715.8
2018-Sep-29 20:03N 51°49' W 127°55'115.7
2018-Sep-29 20:01N 51°48' W 127°55'815.6
2018-Sep-29 19:30N 51°41' W 127°54'715.4
2018-Sep-29 19:03N 51°34' W 127°52'114.9
2018-Sep-29 19:00N 51°33' W 127°51'815.5
2018-Sep-29 18:30N 51°25' W 127°52'715.3
2018-Sep-29 18:03N 51°18' W 127°52'115.4
2018-Sep-29 18:00N 51°18' W 127°52'815.6
2018-Sep-29 17:30N 51°10' W 127°49'715.9
2018-Sep-29 17:03N 51°05' W 127°42'116.4
2018-Sep-29 17:00N 51°04' W 127°41'917.0
2018-Sep-29 16:30N 50°58' W 127°31'716.4
2018-Sep-29 16:03N 50°54' W 127°22'116.0
2018-Sep-29 16:00N 50°53' W 127°21'816.0
2018-Sep-29 15:30N 50°49' W 127°10'715.8
2018-Sep-29 15:02N 50°45' W 127°00'116.4
2018-Sep-29 15:00N 50°44' W 126°60'816.0
2018-Sep-29 14:28N 50°39' W 126°49'715.3
2018-Sep-29 13:59N 50°34' W 126°41'713.8
2018-Sep-29 13:30N 50°30' W 126°32'815.9
2018-Sep-29 13:00N 50°29' W 126°20'2215.4
2018-Sep-29 11:37N 50°23' W 125°48'1315.2
2018-Sep-29 10:45N 50°20' W 125°27'314.0
2018-Sep-29 10:30N 50°18' W 125°25'715.9
2018-Sep-29 10:03N 50°11' W 125°22'117.1
2018-Sep-29 10:00N 50°10' W 125°21'612.9
2018-Sep-29 09:31N 50°05' W 125°16'612.9
2018-Sep-29 09:03N 49°59' W 125°12'115.4
2018-Sep-29 09:00N 49°59' W 125°11'917.0
2018-Sep-29 08:29N 49°53' W 125°01'716.9
2018-Sep-29 08:03N 49°47' W 124°53'118.6
2018-Sep-29 08:00N 49°47' W 124°52'1019.1
2018-Sep-29 07:29N 49°40' W 124°41'818.4
2018-Sep-29 07:03N 49°34' W 124°32'118.4
2018-Sep-29 07:01N 49°34' W 124°32'918.2
2018-Sep-29 06:30N 49°27' W 124°21'818.0
2018-Sep-29 06:03N 49°24' W 124°10'118.5
2018-Sep-29 06:00N 49°24' W 124°09'918.2
2018-Sep-29 05:30N 49°23' W 123°55'818.0
2018-Sep-29 05:04N 49°18' W 123°45'118.2
2018-Sep-29 05:00N 49°18' W 123°44'917.8
2018-Sep-29 04:30N 49°12' W 123°33'817.8
2018-Sep-29 04:03N 49°06' W 123°24'118.0
2018-Sep-29 04:01N 49°06' W 123°23'917.7
2018-Sep-29 03:30N 48°60' W 123°13'816.8
2018-Sep-29 03:03N 48°55' W 123°05'117.9
2018-Sep-29 03:00N 48°54' W 123°03'918.5
2018-Sep-29 02:30N 48°48' W 122°53'816.9
2018-Sep-29 02:03N 48°43' W 122°44'117.8
2018-Sep-29 02:00N 48°42' W 122°43'714.5
2018-Sep-29 01:31N 48°39' W 122°34'5 0.5
2018-Sep-28 14:48N 48°43' W 122°31'8 9.8
2018-Sep-28 14:01N 48°38' W 122°38'815.7
2018-Sep-28 13:30N 48°44' W 122°46'716.3
2018-Sep-28 13:03N 48°48' W 122°55'116.6
2018-Sep-28 13:00N 48°48' W 122°56'917.4
2018-Sep-28 12:30N 48°54' W 123°07'512.0
2018-Sep-28 12:03N 48°57' W 123°13'113.1
2018-Sep-28 12:00N 48°57' W 123°14'612.0
2018-Sep-28 11:30N 49°02' W 123°21'511.9
2018-Sep-28 11:03N 49°05' W 123°26'112.4
2018-Sep-28 11:00N 49°06' W 123°27'612.0
2018-Sep-28 10:30N 49°10' W 123°33'512.0
2018-Sep-28 10:03N 49°14' W 123°39'112.1
2018-Sep-28 10:00N 49°14' W 123°40'612.0
2018-Sep-28 09:30N 49°19' W 123°46'511.9
2018-Sep-28 09:03N 49°22' W 123°53'111.8
2018-Sep-28 09:00N 49°22' W 123°54'612.0
2018-Sep-28 08:30N 49°23' W 124°03'512.1
2018-Sep-28 08:03N 49°24' W 124°11'111.2
2018-Sep-28 08:00N 49°25' W 124°12'612.0
2018-Sep-28 07:30N 49°27' W 124°21'612.5
2018-Sep-28 07:01N 49°31' W 124°27'012.7
2018-Sep-28 07:00N 49°31' W 124°28'712.2
2018-Sep-28 06:27N 49°35' W 124°35'512.6
2018-Sep-28 06:02N 49°39' W 124°41'012.8
2018-Sep-28 06:00N 49°39' W 124°41'612.6
2018-Sep-28 05:30N 49°44' W 124°48'612.3
2018-Sep-28 05:03N 49°48' W 124°54'010.9
2018-Sep-28 05:00N 49°48' W 124°55'611.9
2018-Sep-28 04:30N 49°52' W 125°01'614.3
2018-Sep-28 04:03N 49°57' W 125°08'117.1
2018-Sep-28 04:00N 49°58' W 125°09'713.5
2018-Sep-28 03:30N 50°03' W 125°15'510.9
2018-Sep-28 03:03N 50°07' W 125°20'115.1
2018-Sep-28 03:00N 50°07' W 125°21'814.7
2018-Sep-28 02:29N 50°15' W 125°23'814.7
2018-Sep-28 01:54N 50°21' W 125°32'2515.8
2018-Sep-28 00:21N 50°28' W 126°09'716.3
2018-Sep-27 23:54N 50°30' W 126°20'716.5
2018-Sep-27 23:29N 50°30' W 126°31'814.9
2018-Sep-27 22:57N 50°35' W 126°42'815.7
2018-Sep-27 22:28N 50°40' W 126°50'716.4
2018-Sep-27 22:03N 50°44' W 126°59'116.3
2018-Sep-27 22:00N 50°45' W 126°60'816.3
2018-Sep-27 21:30N 50°49' W 127°10'816.4
2018-Sep-27 21:03N 50°53' W 127°20'116.8
2018-Sep-27 21:00N 50°54' W 127°21'918.2
2018-Sep-27 20:30N 50°59' W 127°33'817.5
2018-Sep-27 20:03N 51°05' W 127°42'118.1
2018-Sep-27 20:00N 51°05' W 127°43'917.7
2018-Sep-27 19:30N 51°12' W 127°51'816.7
2018-Sep-27 19:03N 51°20' W 127°51'117.4
2018-Sep-27 19:00N 51°21' W 127°51'917.0
2018-Sep-27 18:30N 51°29' W 127°50'818.1
2018-Sep-27 18:03N 51°37' W 127°53'118.2
2018-Sep-27 18:00N 51°38' W 127°53'917.9
2018-Sep-27 17:30N 51°47' W 127°55'817.6
2018-Sep-27 17:03N 51°55' W 127°56'117.8
2018-Sep-27 17:00N 51°56' W 127°56'917.0
2018-Sep-27 16:30N 52°04' W 127°57'715.8
2018-Sep-27 16:03N 52°07' W 128°08'116.1
2018-Sep-27 16:00N 52°07' W 128°08'4 8.2
2018-Sep-27 15:31N 52°11' W 128°06'715.5
2018-Sep-27 15:03N 52°15' W 128°16'118.2
2018-Sep-27 15:00N 52°15' W 128°18'1313.2
2018-Sep-27 14:03N 52°25' W 128°30'119.2
2018-Sep-27 14:00N 52°26' W 128°29'917.9
2018-Sep-27 13:29N 52°35' W 128°29'8215.9
2018-Sep-27 08:18N 53°42' W 129°48'518.5
2018-Sep-27 08:00N 53°46' W 129°55'918.4
2018-Sep-27 07:30N 53°53' W 130°05'816.8
2018-Sep-27 07:03N 53°59' W 130°13'118.2
2018-Sep-27 07:00N 53°60' W 130°13'917.5
2018-Sep-27 06:30N 54°07' W 130°22'818.7
2018-Sep-27 06:03N 54°14' W 130°30'118.8
2018-Sep-27 06:00N 54°15' W 130°31'918.3
2018-Sep-27 05:30N 54°23' W 130°36'818.7
2018-Sep-27 05:03N 54°32' W 130°39'118.8
2018-Sep-27 05:00N 54°32' W 130°39'918.2
2018-Sep-27 04:31N 54°40' W 130°48'817.7
2018-Sep-27 04:03N 54°43' W 131°01'118.9
2018-Sep-27 04:00N 54°44' W 131°01'  
2018-Sep-23 11:54N 54°49' W 130°60'614.3
2018-Sep-23 11:28N 54°44' W 130°53'614.5
2018-Sep-23 11:02N 54°39' W 130°46'014.6
2018-Sep-23 11:00N 54°39' W 130°45'714.5
2018-Sep-23 10:30N 54°32' W 130°40'715.3
2018-Sep-23 10:03N 54°26' W 130°38'114.9
2018-Sep-23 10:00N 54°25' W 130°37'713.4
2018-Sep-23 09:31N 54°18' W 130°35'715.8
2018-Sep-23 09:03N 54°13' W 130°29'116.1
2018-Sep-23 09:00N 54°12' W 130°28'815.5
2018-Sep-23 08:31N 54°06' W 130°20'715.0
2018-Sep-23 08:03N 54°00' W 130°13'115.5
2018-Sep-23 08:00N 53°59' W 130°13'714.3
2018-Sep-23 07:30N 53°53' W 130°06'715.3
2018-Sep-23 07:03N 53°48' W 129°58'116.6
2018-Sep-23 07:00N 53°48' W 129°57'816.0
2018-Sep-23 06:31N 53°42' W 129°48'7414.3
2018-Sep-23 01:20N 52°43' W 128°34'514.9
2018-Sep-23 01:01N 52°38' W 128°31'016.0
2018-Sep-23 01:00N 52°38' W 128°31'815.6
2018-Sep-23 00:30N 52°31' W 128°27'715.7
2018-Sep-23 00:03N 52°24' W 128°30'116.2
2018-Sep-23 00:01N 52°23' W 128°31'714.9
2018-Sep-22 23:30N 52°16' W 128°27'716.1
2018-Sep-22 23:03N 52°14' W 128°15'116.1
2018-Sep-22 23:00N 52°14' W 128°14'511.0
2018-Sep-22 22:30N 52°11' W 128°07'3 7.6
2018-Sep-22 22:03N 52°07' W 128°08'117.0
2018-Sep-22 22:00N 52°06' W 128°08'714.9
2018-Sep-22 21:30N 52°04' W 127°56'715.8
2018-Sep-22 21:04N 51°57' W 127°56'116.1
2018-Sep-22 21:00N 51°56' W 127°56'918.0
2018-Sep-22 20:31N 51°47' W 127°55'818.6
2018-Sep-22 20:04N 51°39' W 127°54'117.3
2018-Sep-22 20:00N 51°38' W 127°53'816.5
2018-Sep-22 19:30N 51°30' W 127°52'716.3
2018-Sep-22 19:03N 51°22' W 127°52'116.3
2018-Sep-22 19:00N 51°21' W 127°52'816.3
2018-Sep-22 18:30N 51°13' W 127°51'716.4
2018-Sep-22 18:03N 51°07' W 127°45'116.4
2018-Sep-22 18:00N 51°06' W 127°44'816.5
2018-Sep-22 17:30N 51°00' W 127°36'3016.6
2018-Sep-22 15:42N 50°43' W 126°57'316.1
2018-Sep-22 15:30N 50°41' W 126°53'1115.9
2018-Sep-22 14:50N 50°33' W 126°41'1215.3
2018-Sep-22 14:03N 50°30' W 126°23'3716.6
2018-Sep-22 11:48N 50°20' W 125°27'515.4
2018-Sep-22 11:30N 50°16' W 125°24'716.7
2018-Sep-22 11:03N 50°09' W 125°21'115.8
2018-Sep-22 11:00N 50°08' W 125°21'714.0
2018-Sep-22 10:30N 50°03' W 125°14'613.0
2018-Sep-22 10:02N 49°58' W 125°09'115.1
2018-Sep-22 10:00N 49°57' W 125°08'715.3
2018-Sep-22 09:30N 49°52' W 125°00'715.3
2018-Sep-22 09:03N 49°47' W 124°53'115.7
2018-Sep-22 09:00N 49°46' W 124°52'815.1
2018-Sep-22 08:30N 49°41' W 124°43'715.2
2018-Sep-22 08:03N 49°36' W 124°36'115.1
2018-Sep-22 08:00N 49°36' W 124°35'815.5
2018-Sep-22 07:29N 49°30' W 124°26'715.2
2018-Sep-22 07:03N 49°26' W 124°18'115.1
2018-Sep-22 06:59N 49°26' W 124°17'815.4
2018-Sep-22 06:30N 49°24' W 124°06'715.4
2018-Sep-22 06:02N 49°22' W 123°55'015.2
2018-Sep-22 06:00N 49°21' W 123°55'815.5
2018-Sep-22 05:31N 49°18' W 123°44'715.9
2018-Sep-22 05:03N 49°13' W 123°35'116.3
2018-Sep-22 05:00N 49°13' W 123°35'815.8
2018-Sep-22 04:28N 49°07' W 123°25'715.9
2018-Sep-22 04:03N 49°03' W 123°18'115.9
2018-Sep-22 04:00N 49°02' W 123°17'815.9
2018-Sep-22 03:30N 48°57' W 123°08'715.8
2018-Sep-22 03:03N 48°52' W 123°00'115.8
2018-Sep-22 03:00N 48°52' W 122°59'915.8
2018-Sep-22 02:27N 48°46' W 122°48'615.3
2018-Sep-22 02:03N 48°42' W 122°43'116.1
2018-Sep-22 02:00N 48°41' W 122°42'611.4
2018-Sep-22 01:30N 48°40' W 122°33'4 0.4
2018-Sep-21 16:41N 48°43' W 122°31'0 0.0
2018-Sep-21 16:29N 48°43' W 122°31'0 0.0
2018-Sep-21 15:59N 48°43' W 122°31'0 0.0
2018-Sep-21 14:56N 48°43' W 122°31'2 3.4
2018-Sep-21 14:27N 48°42' W 122°33'9 9.3
2018-Sep-21 13:30N 48°44' W 122°46'715.3
2018-Sep-21 13:03N 48°48' W 122°54'116.4
2018-Sep-21 13:00N 48°48' W 122°55'917.5
2018-Sep-21 12:30N 48°53' W 123°06'715.9
2018-Sep-21 12:03N 48°58' W 123°14'114.4
2018-Sep-21 12:00N 48°58' W 123°15'714.6
2018-Sep-21 11:30N 49°03' W 123°24'714.7
2018-Sep-21 11:03N 49°08' W 123°30'114.4
2018-Sep-21 11:00N 49°08' W 123°31'714.6
2018-Sep-21 10:30N 49°14' W 123°39'714.6
2018-Sep-21 10:03N 49°19' W 123°46'114.6
2018-Sep-21 10:00N 49°19' W 123°46'714.1
2018-Sep-21 09:30N 49°23' W 123°56'714.7
2018-Sep-21 09:03N 49°24' W 124°06'114.4
2018-Sep-21 09:00N 49°24' W 124°07'714.7
2018-Sep-21 08:30N 49°26' W 124°18'813.7
2018-Sep-21 07:53N 49°31' W 124°28'613.6
2018-Sep-21 07:27N 49°35' W 124°34'513.3
2018-Sep-21 07:03N 49°39' W 124°40'113.2
2018-Sep-21 07:00N 49°39' W 124°41'713.6
2018-Sep-21 06:30N 49°44' W 124°48'713.6
2018-Sep-21 06:02N 49°49' W 124°55'012.9
2018-Sep-21 06:00N 49°49' W 124°56'713.3
2018-Sep-21 05:30N 49°54' W 125°03'612.1
2018-Sep-21 05:03N 49°58' W 125°09'111.4
2018-Sep-21 04:59N 49°58' W 125°10'613.1
2018-Sep-21 04:30N 50°04' W 125°15'612.5
2018-Sep-21 04:03N 50°07' W 125°21'114.7
2018-Sep-21 04:00N 50°08' W 125°21'914.7
2018-Sep-21 03:24N 50°17' W 125°24'6115.2
2018-Sep-20 23:24N 50°41' W 126°52'617.6
2018-Sep-20 23:03N 50°45' W 126°60'117.8
2018-Sep-20 22:58N 50°45' W 127°02'817.4
2018-Sep-20 22:30N 50°50' W 127°12'817.6
2018-Sep-20 22:03N 50°54' W 127°23'117.6
2018-Sep-20 22:00N 50°55' W 127°24'816.9
2018-Sep-20 21:30N 50°59' W 127°35'817.2
2018-Sep-20 21:03N 51°05' W 127°43'118.0
2018-Sep-20 21:00N 51°06' W 127°44'917.1
2018-Sep-20 20:30N 51°13' W 127°52'817.1
2018-Sep-20 20:03N 51°21' W 127°52'117.3
2018-Sep-20 20:00N 51°22' W 127°52'917.4
2018-Sep-20 19:31N 51°30' W 127°52'817.6
2018-Sep-20 19:03N 51°38' W 127°54'117.4
2018-Sep-20 19:00N 51°39' W 127°54'918.5
2018-Sep-20 18:30N 51°48' W 127°55'817.7
2018-Sep-20 18:03N 51°56' W 127°56'117.8
2018-Sep-20 18:00N 51°57' W 127°56'815.4
2018-Sep-20 17:30N 52°05' W 127°59'614.3
2018-Sep-20 17:04N 52°08' W 128°08'112.7
2018-Sep-20 17:00N 52°09' W 128°08'3 6.6
2018-Sep-20 16:30N 52°12' W 128°06'816.9
2018-Sep-20 16:03N 52°15' W 128°18'117.6
2018-Sep-20 16:00N 52°15' W 128°19'816.7
2018-Sep-20 15:30N 52°17' W 128°32'817.6
2018-Sep-20 15:03N 52°25' W 128°30'118.1
2018-Sep-20 15:00N 52°26' W 128°29'1717.0
2018-Sep-20 14:01N 52°42' W 128°34'018.2
2018-Sep-20 14:00N 52°43' W 128°34'  
Track history (hours):
 
Tides and Currents Weather Stations Pressure Air Temp Water Temp Dewpoint Dewpoint Depression Visibility Wind Speed Wind Dir Waves Ship Positions

Columbia

Owner: ALASKA, STATE OF, ANCHORAGE, AK. More information available from US FCC via Universal Licensing System and Coast Guard Vessel Documentation Center.

Last reported at 2018-Sep-30 11:05 UTC. Time now 2018-Nov-18 16:51 UTC.
Position N 54°41' W 130°49'.
Warning: this ship's position is 49 days out of date.

Type: Ship. MMSI: 367144000.

Date/timePositionNaut miles runAvg speedWind from/ knotsBaromVisibWave heightAir tempDewpointWater temp
2018-Sep-30 11:05N 54°41' W 130°49'016.8
2018-Sep-30 11:03N 54°40' W 130°48'115.8
2018-Sep-30 11:00N 54°40' W 130°47'715.3
2018-Sep-30 10:30N 54°33' W 130°43'715.6
2018-Sep-30 10:03N 54°26' W 130°39'115.8
2018-Sep-30 10:00N 54°25' W 130°38'612.9
2018-Sep-30 09:31N 54°19' W 130°35'715.2
2018-Sep-30 09:03N 54°13' W 130°29'115.0
2018-Sep-30 09:00N 54°13' W 130°28'815.4
2018-Sep-30 08:30N 54°06' W 130°21'715.0
2018-Sep-30 08:03N 54°01' W 130°13'115.1
2018-Sep-30 08:00N 54°00' W 130°13'713.8
2018-Sep-30 07:30N 53°54' W 130°08'614.3
2018-Sep-30 07:03N 53°50' W 130°00'114.4
2018-Sep-30 07:00N 53°49' W 129°60'814.4
2018-Sep-30 06:29N 53°44' W 129°51'7613.6
2018-Sep-30 00:53N 52°44' W 128°33'614.5
2018-Sep-30 00:30N 52°38' W 128°31'815.6
2018-Sep-30 00:00N 52°31' W 128°27'917.6
2018-Sep-29 23:30N 52°22' W 128°32'714.6
2018-Sep-29 23:03N 52°17' W 128°27'114.9
2018-Sep-29 23:00N 52°16' W 128°26'815.8
2018-Sep-29 22:30N 52°14' W 128°14'511.5
2018-Sep-29 22:03N 52°11' W 128°07'0 7.6
2018-Sep-29 22:00N 52°10' W 128°08'4 8.4
2018-Sep-29 21:30N 52°06' W 128°08'714.5
2018-Sep-29 21:03N 52°04' W 127°58'116.0
2018-Sep-29 21:00N 52°04' W 127°56'815.2
2018-Sep-29 20:30N 51°56' W 127°56'715.8
2018-Sep-29 20:03N 51°49' W 127°55'115.7
2018-Sep-29 20:01N 51°48' W 127°55'815.6
2018-Sep-29 19:30N 51°41' W 127°54'715.4
2018-Sep-29 19:03N 51°34' W 127°52'114.9
2018-Sep-29 19:00N 51°33' W 127°51'815.5
2018-Sep-29 18:30N 51°25' W 127°52'715.3
2018-Sep-29 18:03N 51°18' W 127°52'115.4
2018-Sep-29 18:00N 51°18' W 127°52'815.6
2018-Sep-29 17:30N 51°10' W 127°49'715.9
2018-Sep-29 17:03N 51°05' W 127°42'116.4
2018-Sep-29 17:00N 51°04' W 127°41'917.0
2018-Sep-29 16:30N 50°58' W 127°31'716.4
2018-Sep-29 16:03N 50°54' W 127°22'116.0
2018-Sep-29 16:00N 50°53' W 127°21'816.0
2018-Sep-29 15:30N 50°49' W 127°10'715.8
2018-Sep-29 15:02N 50°45' W 127°00'116.4
2018-Sep-29 15:00N 50°44' W 126°60'816.0
2018-Sep-29 14:28N 50°39' W 126°49'715.3
2018-Sep-29 13:59N 50°34' W 126°41'713.8
2018-Sep-29 13:30N 50°30' W 126°32'815.9
2018-Sep-29 13:00N 50°29' W 126°20'2215.4
2018-Sep-29 11:37N 50°23' W 125°48'1315.2
2018-Sep-29 10:45N 50°20' W 125°27'314.0
2018-Sep-29 10:30N 50°18' W 125°25'715.9
2018-Sep-29 10:03N 50°11' W 125°22'117.1
2018-Sep-29 10:00N 50°10' W 125°21'612.9
2018-Sep-29 09:31N 50°05' W 125°16'612.9
2018-Sep-29 09:03N 49°59' W 125°12'115.4
2018-Sep-29 09:00N 49°59' W 125°11'917.0
2018-Sep-29 08:29N 49°53' W 125°01'716.9
2018-Sep-29 08:03N 49°47' W 124°53'118.6
2018-Sep-29 08:00N 49°47' W 124°52'1019.1
2018-Sep-29 07:29N 49°40' W 124°41'818.4
2018-Sep-29 07:03N 49°34' W 124°32'118.4
2018-Sep-29 07:01N 49°34' W 124°32'918.2
2018-Sep-29 06:30N 49°27' W 124°21'818.0
2018-Sep-29 06:03N 49°24' W 124°10'118.5
2018-Sep-29 06:00N 49°24' W 124°09'918.2
2018-Sep-29 05:30N 49°23' W 123°55'818.0
2018-Sep-29 05:04N 49°18' W 123°45'118.2
2018-Sep-29 05:00N 49°18' W 123°44'917.8
2018-Sep-29 04:30N 49°12' W 123°33'817.8
2018-Sep-29 04:03N 49°06' W 123°24'118.0
2018-Sep-29 04:01N 49°06' W 123°23'917.7
2018-Sep-29 03:30N 48°60' W 123°13'816.8
2018-Sep-29 03:03N 48°55' W 123°05'117.9
2018-Sep-29 03:00N 48°54' W 123°03'918.5
2018-Sep-29 02:30N 48°48' W 122°53'816.9
2018-Sep-29 02:03N 48°43' W 122°44'117.8
2018-Sep-29 02:00N 48°42' W 122°43'714.5
2018-Sep-29 01:31N 48°39' W 122°34'5 0.5
2018-Sep-28 14:48N 48°43' W 122°31'8 9.8
2018-Sep-28 14:01N 48°38' W 122°38'815.7
2018-Sep-28 13:30N 48°44' W 122°46'716.3
2018-Sep-28 13:03N 48°48' W 122°55'116.6
2018-Sep-28 13:00N 48°48' W 122°56'917.4
2018-Sep-28 12:30N 48°54' W 123°07'512.0
2018-Sep-28 12:03N 48°57' W 123°13'113.1
2018-Sep-28 12:00N 48°57' W 123°14'612.0
2018-Sep-28 11:30N 49°02' W 123°21'511.9
2018-Sep-28 11:03N 49°05' W 123°26'112.4
2018-Sep-28 11:00N 49°06' W 123°27'612.0
2018-Sep-28 10:30N 49°10' W 123°33'512.0
2018-Sep-28 10:03N 49°14' W 123°39'112.1
2018-Sep-28 10:00N 49°14' W 123°40'612.0
2018-Sep-28 09:30N 49°19' W 123°46'511.9
2018-Sep-28 09:03N 49°22' W 123°53'111.8
2018-Sep-28 09:00N 49°22' W 123°54'612.0
2018-Sep-28 08:30N 49°23' W 124°03'512.1
2018-Sep-28 08:03N 49°24' W 124°11'111.2
2018-Sep-28 08:00N 49°25' W 124°12'612.0
2018-Sep-28 07:30N 49°27' W 124°21'612.5
2018-Sep-28 07:01N 49°31' W 124°27'012.7
2018-Sep-28 07:00N 49°31' W 124°28'712.2
2018-Sep-28 06:27N 49°35' W 124°35'512.6
2018-Sep-28 06:02N 49°39' W 124°41'012.8
2018-Sep-28 06:00N 49°39' W 124°41'612.6
2018-Sep-28 05:30N 49°44' W 124°48'612.3
2018-Sep-28 05:03N 49°48' W 124°54'010.9
2018-Sep-28 05:00N 49°48' W 124°55'611.9
2018-Sep-28 04:30N 49°52' W 125°01'614.3
2018-Sep-28 04:03N 49°57' W 125°08'117.1
2018-Sep-28 04:00N 49°58' W 125°09'713.5
2018-Sep-28 03:30N 50°03' W 125°15'510.9
2018-Sep-28 03:03N 50°07' W 125°20'115.1
2018-Sep-28 03:00N 50°07' W 125°21'814.7
2018-Sep-28 02:29N 50°15' W 125°23'814.7
2018-Sep-28 01:54N 50°21' W 125°32'2515.8
2018-Sep-28 00:21N 50°28' W 126°09'716.3
2018-Sep-27 23:54N 50°30' W 126°20'716.5
2018-Sep-27 23:29N 50°30' W 126°31'814.9
2018-Sep-27 22:57N 50°35' W 126°42'815.7
2018-Sep-27 22:28N 50°40' W 126°50'716.4
2018-Sep-27 22:03N 50°44' W 126°59'116.3
2018-Sep-27 22:00N 50°45' W 126°60'816.3
2018-Sep-27 21:30N 50°49' W 127°10'816.4
2018-Sep-27 21:03N 50°53' W 127°20'116.8
2018-Sep-27 21:00N 50°54' W 127°21'918.2
2018-Sep-27 20:30N 50°59' W 127°33'817.5
2018-Sep-27 20:03N 51°05' W 127°42'118.1
2018-Sep-27 20:00N 51°05' W 127°43'917.7
2018-Sep-27 19:30N 51°12' W 127°51'816.7
2018-Sep-27 19:03N 51°20' W 127°51'117.4
2018-Sep-27 19:00N 51°21' W 127°51'917.0
2018-Sep-27 18:30N 51°29' W 127°50'818.1
2018-Sep-27 18:03N 51°37' W 127°53'118.2
2018-Sep-27 18:00N 51°38' W 127°53'917.9
2018-Sep-27 17:30N 51°47' W 127°55'817.6
2018-Sep-27 17:03N 51°55' W 127°56'117.8
2018-Sep-27 17:00N 51°56' W 127°56'917.0
2018-Sep-27 16:30N 52°04' W 127°57'715.8
2018-Sep-27 16:03N 52°07' W 128°08'116.1
2018-Sep-27 16:00N 52°07' W 128°08'4 8.2
2018-Sep-27 15:31N 52°11' W 128°06'715.5
2018-Sep-27 15:03N 52°15' W 128°16'118.2
2018-Sep-27 15:00N 52°15' W 128°18'1313.2
2018-Sep-27 14:03N 52°25' W 128°30'119.2
2018-Sep-27 14:00N 52°26' W 128°29'917.9
2018-Sep-27 13:29N 52°35' W 128°29'8215.9
2018-Sep-27 08:18N 53°42' W 129°48'518.5
2018-Sep-27 08:00N 53°46' W 129°55'918.4
2018-Sep-27 07:30N 53°53' W 130°05'816.8
2018-Sep-27 07:03N 53°59' W 130°13'118.2
2018-Sep-27 07:00N 53°60' W 130°13'917.5
2018-Sep-27 06:30N 54°07' W 130°22'818.7
2018-Sep-27 06:03N 54°14' W 130°30'118.8
2018-Sep-27 06:00N 54°15' W 130°31'918.3
2018-Sep-27 05:30N 54°23' W 130°36'818.7
2018-Sep-27 05:03N 54°32' W 130°39'118.8
2018-Sep-27 05:00N 54°32' W 130°39'918.2
2018-Sep-27 04:31N 54°40' W 130°48'817.7
2018-Sep-27 04:03N 54°43' W 131°01'118.9
2018-Sep-27 04:00N 54°44' W 131°01'  
2018-Sep-23 11:54N 54°49' W 130°60'614.3
2018-Sep-23 11:28N 54°44' W 130°53'614.5
2018-Sep-23 11:02N 54°39' W 130°46'014.6
2018-Sep-23 11:00N 54°39' W 130°45'714.5
2018-Sep-23 10:30N 54°32' W 130°40'715.3
2018-Sep-23 10:03N 54°26' W 130°38'114.9
2018-Sep-23 10:00N 54°25' W 130°37'713.4
2018-Sep-23 09:31N 54°18' W 130°35'715.8
2018-Sep-23 09:03N 54°13' W 130°29'116.1
2018-Sep-23 09:00N 54°12' W 130°28'815.5
2018-Sep-23 08:31N 54°06' W 130°20'715.0
2018-Sep-23 08:03N 54°00' W 130°13'115.5
2018-Sep-23 08:00N 53°59' W 130°13'714.3
2018-Sep-23 07:30N 53°53' W 130°06'715.3
2018-Sep-23 07:03N 53°48' W 129°58'116.6
2018-Sep-23 07:00N 53°48' W 129°57'816.0
2018-Sep-23 06:31N 53°42' W 129°48'7414.3
2018-Sep-23 01:20N 52°43' W 128°34'514.9
2018-Sep-23 01:01N 52°38' W 128°31'016.0
2018-Sep-23 01:00N 52°38' W 128°31'815.6
2018-Sep-23 00:30N 52°31' W 128°27'715.7
2018-Sep-23 00:03N 52°24' W 128°30'116.2
2018-Sep-23 00:01N 52°23' W 128°31'714.9
2018-Sep-22 23:30N 52°16' W 128°27'716.1
2018-Sep-22 23:03N 52°14' W 128°15'116.1
2018-Sep-22 23:00N 52°14' W 128°14'511.0
2018-Sep-22 22:30N 52°11' W 128°07'3 7.6
2018-Sep-22 22:03N 52°07' W 128°08'117.0
2018-Sep-22 22:00N 52°06' W 128°08'714.9
2018-Sep-22 21:30N 52°04' W 127°56'715.8
2018-Sep-22 21:04N 51°57' W 127°56'116.1
2018-Sep-22 21:00N 51°56' W 127°56'918.0
2018-Sep-22 20:31N 51°47' W 127°55'818.6
2018-Sep-22 20:04N 51°39' W 127°54'117.3
2018-Sep-22 20:00N 51°38' W 127°53'816.5
2018-Sep-22 19:30N 51°30' W 127°52'716.3
2018-Sep-22 19:03N 51°22' W 127°52'116.3
2018-Sep-22 19:00N 51°21' W 127°52'816.3
2018-Sep-22 18:30N 51°13' W 127°51'716.4
2018-Sep-22 18:03N 51°07' W 127°45'116.4
2018-Sep-22 18:00N 51°06' W 127°44'816.5
2018-Sep-22 17:30N 51°00' W 127°36'3016.6
2018-Sep-22 15:42N 50°43' W 126°57'316.1
2018-Sep-22 15:30N 50°41' W 126°53'1115.9
2018-Sep-22 14:50N 50°33' W 126°41'1215.3
2018-Sep-22 14:03N 50°30' W 126°23'3716.6
2018-Sep-22 11:48N 50°20' W 125°27'515.4
2018-Sep-22 11:30N 50°16' W 125°24'716.7
2018-Sep-22 11:03N 50°09' W 125°21'115.8
2018-Sep-22 11:00N 50°08' W 125°21'714.0
2018-Sep-22 10:30N 50°03' W 125°14'613.0
2018-Sep-22 10:02N 49°58' W 125°09'115.1
2018-Sep-22 10:00N 49°57' W 125°08'715.3
2018-Sep-22 09:30N 49°52' W 125°00'715.3
2018-Sep-22 09:03N 49°47' W 124°53'115.7
2018-Sep-22 09:00N 49°46' W 124°52'815.1
2018-Sep-22 08:30N 49°41' W 124°43'715.2
2018-Sep-22 08:03N 49°36' W 124°36'115.1
2018-Sep-22 08:00N 49°36' W 124°35'815.5
2018-Sep-22 07:29N 49°30' W 124°26'715.2
2018-Sep-22 07:03N 49°26' W 124°18'115.1
2018-Sep-22 06:59N 49°26' W 124°17'815.4
2018-Sep-22 06:30N 49°24' W 124°06'715.4
2018-Sep-22 06:02N 49°22' W 123°55'015.2
2018-Sep-22 06:00N 49°21' W 123°55'815.5
2018-Sep-22 05:31N 49°18' W 123°44'715.9
2018-Sep-22 05:03N 49°13' W 123°35'116.3
2018-Sep-22 05:00N 49°13' W 123°35'815.8
2018-Sep-22 04:28N 49°07' W 123°25'715.9
2018-Sep-22 04:03N 49°03' W 123°18'115.9
2018-Sep-22 04:00N 49°02' W 123°17'815.9
2018-Sep-22 03:30N 48°57' W 123°08'715.8
2018-Sep-22 03:03N 48°52' W 123°00'115.8
2018-Sep-22 03:00N 48°52' W 122°59'915.8
2018-Sep-22 02:27N 48°46' W 122°48'615.3
2018-Sep-22 02:03N 48°42' W 122°43'116.1
2018-Sep-22 02:00N 48°41' W 122°42'611.4
2018-Sep-22 01:30N 48°40' W 122°33'4 0.4
2018-Sep-21 16:41N 48°43' W 122°31'0 0.0
2018-Sep-21 16:29N 48°43' W 122°31'0 0.0
2018-Sep-21 15:59N 48°43' W 122°31'0 0.0
2018-Sep-21 14:56N 48°43' W 122°31'2 3.4
2018-Sep-21 14:27N 48°42' W 122°33'9 9.3
2018-Sep-21 13:30N 48°44' W 122°46'715.3
2018-Sep-21 13:03N 48°48' W 122°54'116.4
2018-Sep-21 13:00N 48°48' W 122°55'917.5
2018-Sep-21 12:30N 48°53' W 123°06'715.9
2018-Sep-21 12:03N 48°58' W 123°14'114.4
2018-Sep-21 12:00N 48°58' W 123°15'714.6
2018-Sep-21 11:30N 49°03' W 123°24'714.7
2018-Sep-21 11:03N 49°08' W 123°30'114.4
2018-Sep-21 11:00N 49°08' W 123°31'714.6
2018-Sep-21 10:30N 49°14' W 123°39'714.6
2018-Sep-21 10:03N 49°19' W 123°46'114.6
2018-Sep-21 10:00N 49°19' W 123°46'714.1
2018-Sep-21 09:30N 49°23' W 123°56'714.7
2018-Sep-21 09:03N 49°24' W 124°06'114.4
2018-Sep-21 09:00N 49°24' W 124°07'714.7
2018-Sep-21 08:30N 49°26' W 124°18'813.7
2018-Sep-21 07:53N 49°31' W 124°28'613.6
2018-Sep-21 07:27N 49°35' W 124°34'513.3
2018-Sep-21 07:03N 49°39' W 124°40'113.2
2018-Sep-21 07:00N 49°39' W 124°41'713.6
2018-Sep-21 06:30N 49°44' W 124°48'713.6
2018-Sep-21 06:02N 49°49' W 124°55'012.9
2018-Sep-21 06:00N 49°49' W 124°56'713.3
2018-Sep-21 05:30N 49°54' W 125°03'612.1
2018-Sep-21 05:03N 49°58' W 125°09'111.4
2018-Sep-21 04:59N 49°58' W 125°10'613.1
2018-Sep-21 04:30N 50°04' W 125°15'612.5
2018-Sep-21 04:03N 50°07' W 125°21'114.7
2018-Sep-21 04:00N 50°08' W 125°21'914.7
2018-Sep-21 03:24N 50°17' W 125°24'6115.2
2018-Sep-20 23:24N 50°41' W 126°52'617.6
2018-Sep-20 23:03N 50°45' W 126°60'117.8
2018-Sep-20 22:58N 50°45' W 127°02'817.4
2018-Sep-20 22:30N 50°50' W 127°12'817.6
2018-Sep-20 22:03N 50°54' W 127°23'117.6
2018-Sep-20 22:00N 50°55' W 127°24'816.9
2018-Sep-20 21:30N 50°59' W 127°35'817.2
2018-Sep-20 21:03N 51°05' W 127°43'118.0
2018-Sep-20 21:00N 51°06' W 127°44'917.1
2018-Sep-20 20:30N 51°13' W 127°52'817.1
2018-Sep-20 20:03N 51°21' W 127°52'117.3
2018-Sep-20 20:00N 51°22' W 127°52'917.4
2018-Sep-20 19:31N 51°30' W 127°52'817.6
2018-Sep-20 19:03N 51°38' W 127°54'117.4
2018-Sep-20 19:00N 51°39' W 127°54'918.5
2018-Sep-20 18:30N 51°48' W 127°55'817.7
2018-Sep-20 18:03N 51°56' W 127°56'117.8
2018-Sep-20 18:00N 51°57' W 127°56'815.4
2018-Sep-20 17:30N 52°05' W 127°59'614.3
2018-Sep-20 17:04N 52°08' W 128°08'112.7
2018-Sep-20 17:00N 52°09' W 128°08'3 6.6
2018-Sep-20 16:30N 52°12' W 128°06'816.9
2018-Sep-20 16:03N 52°15' W 128°18'117.6
2018-Sep-20 16:00N 52°15' W 128°19'816.7
2018-Sep-20 15:30N 52°17' W 128°32'817.6
2018-Sep-20 15:03N 52°25' W 128°30'118.1
2018-Sep-20 15:00N 52°26' W 128°29'1717.0
2018-Sep-20 14:01N 52°42' W 128°34'018.2
2018-Sep-20 14:00N 52°43' W 128°34'  

Dump ship's entire track history